sensor_id;sensor_type;location;lat;lon;timestamp;pressure;altitude;pressure_sealevel;temperature;humidity
1926;BME280;964;42.606;23.588;2022-12-13T00:01:55;93912.03;;;18.45;29.76
1926;BME280;964;42.606;23.588;2022-12-13T00:04:25;93911.34;;;18.41;29.37
1926;BME280;964;42.606;23.588;2022-12-13T00:06:52;93917.97;;;18.17;30.23
1926;BME280;964;42.606;23.588;2022-12-13T00:09:19;93919.50;;;18.57;29.86
1926;BME280;964;42.606;23.588;2022-12-13T00:11:47;93919.59;;;18.89;29.33
1926;BME280;964;42.606;23.588;2022-12-13T00:14:15;93929.41;;;18.60;29.97
1926;BME280;964;42.606;23.588;2022-12-13T00:16:45;93914.44;;;19.63;27.70
1926;BME280;964;42.606;23.588;2022-12-13T00:19:13;93929.16;;;19.06;29.30
1926;BME280;964;42.606;23.588;2022-12-13T00:21:40;93938.22;;;18.96;28.89
1926;BME280;964;42.606;23.588;2022-12-13T00:24:07;93934.81;;;19.93;27.84
1926;BME280;964;42.606;23.588;2022-12-13T00:26:34;93927.19;;;19.75;27.90
1926;BME280;964;42.606;23.588;2022-12-13T00:29:03;93943.59;;;19.13;28.29
1926;BME280;964;42.606;23.588;2022-12-13T00:31:32;93940.13;;;19.64;28.16
1926;BME280;964;42.606;23.588;2022-12-13T00:33:59;93946.69;;;19.47;27.99
1926;BME280;964;42.606;23.588;2022-12-13T00:36:26;93931.94;;;20.00;27.14
1926;BME280;964;42.606;23.588;2022-12-13T00:38:53;93942.75;;;18.99;28.47
1926;BME280;964;42.606;23.588;2022-12-13T00:41:27;93931.47;;;19.73;27.75
1926;BME280;964;42.606;23.588;2022-12-13T00:43:54;93920.75;;;20.46;26.84
1926;BME280;964;42.606;23.588;2022-12-13T00:46:21;93927.66;;;20.60;27.04
1926;BME280;964;42.606;23.588;2022-12-13T00:48:50;93944.03;;;20.08;27.58
1926;BME280;964;42.606;23.588;2022-12-13T00:51:18;93944.09;;;20.21;27.27
1926;BME280;964;42.606;23.588;2022-12-13T00:53:45;93944.56;;;19.87;27.43
1926;BME280;964;42.606;23.588;2022-12-13T00:56:14;93947.44;;;19.64;27.27
1926;BME280;964;42.606;23.588;2022-12-13T00:58:42;93952.69;;;19.19;27.26
1926;BME280;964;42.606;23.588;2022-12-13T01:01:10;93956.72;;;18.55;28.70
1926;BME280;964;42.606;23.588;2022-12-13T01:03:37;93945.47;;;18.21;28.84
1926;BME280;964;42.606;23.588;2022-12-13T01:06:10;93944.59;;;19.02;28.00
1926;BME280;964;42.606;23.588;2022-12-13T01:08:36;93954.13;;;18.08;29.59
1926;BME280;964;42.606;23.588;2022-12-13T01:11:04;93946.97;;;18.22;29.03
1926;BME280;964;42.606;23.588;2022-12-13T01:13:31;93949.50;;;18.52;28.91
1926;BME280;964;42.606;23.588;2022-12-13T01:16:00;93947.81;;;19.14;28.46
1926;BME280;964;42.606;23.588;2022-12-13T01:18:27;93949.22;;;19.54;27.91
1926;BME280;964;42.606;23.588;2022-12-13T01:20:58;93945.16;;;19.94;27.06
1926;BME280;964;42.606;23.588;2022-12-13T01:23:27;93957.53;;;19.07;28.25
1926;BME280;964;42.606;23.588;2022-12-13T01:25:54;93965.44;;;18.59;28.24
1926;BME280;964;42.606;23.588;2022-12-13T01:28:21;93962.69;;;18.82;28.36
1926;BME280;964;42.606;23.588;2022-12-13T01:30:55;93958.06;;;19.35;27.89
1926;BME280;964;42.606;23.588;2022-12-13T01:33:22;93965.28;;;18.86;28.27
1926;BME280;964;42.606;23.588;2022-12-13T01:35:49;93962.50;;;18.53;27.66
1926;BME280;964;42.606;23.588;2022-12-13T01:38:17;93959.22;;;19.01;27.80
1926;BME280;964;42.606;23.588;2022-12-13T01:40:46;93948.41;;;20.02;26.38
1926;BME280;964;42.606;23.588;2022-12-13T01:43:14;93959.81;;;19.45;26.49
1926;BME280;964;42.606;23.588;2022-12-13T01:45:41;93947.44;;;19.80;26.13
1926;BME280;964;42.606;23.588;2022-12-13T01:48:11;93955.25;;;19.74;26.40
1926;BME280;964;42.606;23.588;2022-12-13T01:50:47;93951.50;;;20.00;26.41
1926;BME280;964;42.606;23.588;2022-12-13T01:53:18;93968.50;;;18.61;27.39
1926;BME280;964;42.606;23.588;2022-12-13T01:55:52;93952.22;;;19.72;26.04
1926;BME280;964;42.606;23.588;2022-12-13T01:58:19;93958.44;;;19.85;26.53
1926;BME280;964;42.606;23.588;2022-12-13T02:00:47;93957.91;;;19.90;26.10
1926;BME280;964;42.606;23.588;2022-12-13T02:03:16;93954.38;;;20.10;25.84
1926;BME280;964;42.606;23.588;2022-12-13T02:05:51;93952.72;;;19.83;25.97
1926;BME280;964;42.606;23.588;2022-12-13T02:08:19;93959.78;;;19.61;26.24
1926;BME280;964;42.606;23.588;2022-12-13T02:10:48;93961.50;;;19.35;26.03
1926;BME280;964;42.606;23.588;2022-12-13T02:13:14;93968.41;;;18.22;26.54
1926;BME280;964;42.606;23.588;2022-12-13T02:15:46;93977.28;;;17.49;27.90
1926;BME280;964;42.606;23.588;2022-12-13T02:18:29;93964.72;;;18.16;27.67
1926;BME280;964;42.606;23.588;2022-12-13T02:21:08;93969.91;;;18.46;27.28
1926;BME280;964;42.606;23.588;2022-12-13T02:27:11;93973.47;;;17.96;27.95
1926;BME280;964;42.606;23.588;2022-12-13T02:32:51;93969.28;;;17.72;27.66
1926;BME280;964;42.606;23.588;2022-12-13T02:35:25;93963.06;;;18.22;26.83
1926;BME280;964;42.606;23.588;2022-12-13T02:37:59;93961.38;;;19.06;26.47
1926;BME280;964;42.606;23.588;2022-12-13T02:40:32;93964.22;;;18.99;26.21
1926;BME280;964;42.606;23.588;2022-12-13T02:43:05;93963.88;;;18.19;27.04
1926;BME280;964;42.606;23.588;2022-12-13T02:45:37;93978.72;;;18.03;26.97
1926;BME280;964;42.606;23.588;2022-12-13T02:48:09;93974.66;;;17.95;27.92
1926;BME280;964;42.606;23.588;2022-12-13T02:50:38;93984.06;;;17.57;27.88
1926;BME280;964;42.606;23.588;2022-12-13T02:53:08;93970.00;;;17.76;27.70
1926;BME280;964;42.606;23.588;2022-12-13T02:55:37;93972.41;;;17.44;27.43
1926;BME280;964;42.606;23.588;2022-12-13T02:58:04;93970.44;;;17.94;27.11
1926;BME280;964;42.606;23.588;2022-12-13T03:00:45;93962.13;;;18.32;26.91
1926;BME280;964;42.606;23.588;2022-12-13T03:03:24;93959.91;;;18.27;27.55
1926;BME280;964;42.606;23.588;2022-12-13T03:06:05;93968.41;;;18.22;26.44
1926;BME280;964;42.606;23.588;2022-12-13T03:09:04;93976.56;;;17.72;27.33
1926;BME280;964;42.606;23.588;2022-12-13T03:11:48;93976.50;;;17.75;27.57
1926;BME280;964;42.606;23.588;2022-12-13T03:14:35;93980.94;;;18.08;26.19
1926;BME280;964;42.606;23.588;2022-12-13T03:17:08;93974.88;;;18.04;27.08
1926;BME280;964;42.606;23.588;2022-12-13T03:19:38;93977.38;;;18.35;27.10
1926;BME280;964;42.606;23.588;2022-12-13T03:22:05;93983.19;;;18.53;26.34
1926;BME280;964;42.606;23.588;2022-12-13T03:24:32;93982.81;;;17.88;27.70
1926;BME280;964;42.606;23.588;2022-12-13T03:26:59;93977.84;;;18.53;26.48
1926;BME280;964;42.606;23.588;2022-12-13T03:29:26;93977.56;;;19.03;25.68
1926;BME280;964;42.606;23.588;2022-12-13T03:31:53;93977.84;;;18.53;26.13
1926;BME280;964;42.606;23.588;2022-12-13T03:34:19;93981.41;;;19.22;26.01
1926;BME280;964;42.606;23.588;2022-12-13T03:36:47;93987.31;;;18.77;26.02
1926;BME280;964;42.606;23.588;2022-12-13T03:39:14;93988.06;;;18.78;25.58
1926;BME280;964;42.606;23.588;2022-12-13T03:41:41;93977.78;;;19.28;25.15
1926;BME280;964;42.606;23.588;2022-12-13T03:44:08;93983.00;;;18.83;25.30
1926;BME280;964;42.606;23.588;2022-12-13T03:46:34;93988.84;;;18.78;25.82
1926;BME280;964;42.606;23.588;2022-12-13T03:49:01;93987.44;;;19.26;25.52
1926;BME280;964;42.606;23.588;2022-12-13T03:51:28;93994.25;;;18.94;26.15
1926;BME280;964;42.606;23.588;2022-12-13T03:53:56;93986.44;;;19.20;25.00
1926;BME280;964;42.606;23.588;2022-12-13T03:56:22;93988.25;;;19.42;25.14
1926;BME280;964;42.606;23.588;2022-12-13T03:58:50;93986.44;;;19.20;25.45
1926;BME280;964;42.606;23.588;2022-12-13T04:01:17;93991.13;;;19.16;25.66
1926;BME280;964;42.606;23.588;2022-12-13T04:03:45;93987.53;;;18.86;26.09
1926;BME280;964;42.606;23.588;2022-12-13T04:06:12;93994.38;;;18.48;26.52
1926;BME280;964;42.606;23.588;2022-12-13T04:08:40;93993.59;;;18.71;25.11
1926;BME280;964;42.606;23.588;2022-12-13T04:11:08;94001.16;;;17.40;26.45
1926;BME280;964;42.606;23.588;2022-12-13T04:13:52;94011.66;;;17.54;26.38
1926;BME280;964;42.606;23.588;2022-12-13T04:16:19;94020.91;;;16.92;27.21
1926;BME280;964;42.606;23.588;2022-12-13T04:18:46;94021.81;;;16.82;27.25
1926;BME280;964;42.606;23.588;2022-12-13T04:21:13;94025.03;;;17.00;27.39
1926;BME280;964;42.606;23.588;2022-12-13T04:23:39;94029.91;;;17.05;27.10
1926;BME280;964;42.606;23.588;2022-12-13T04:26:07;94048.44;;;16.18;28.39
1926;BME280;964;42.606;23.588;2022-12-13T04:28:34;94045.00;;;16.55;28.41
1926;BME280;964;42.606;23.588;2022-12-13T04:31:01;94037.22;;;16.71;28.72
1926;BME280;964;42.606;23.588;2022-12-13T04:33:28;94056.00;;;15.82;29.02
1926;BME280;964;42.606;23.588;2022-12-13T04:35:57;94053.75;;;16.22;28.97
1926;BME280;964;42.606;23.588;2022-12-13T04:38:23;94068.56;;;15.85;29.65
1926;BME280;964;42.606;23.588;2022-12-13T04:40:50;94063.25;;;16.26;28.83
1926;BME280;964;42.606;23.588;2022-12-13T04:43:18;94080.66;;;16.00;29.00
1926;BME280;964;42.606;23.588;2022-12-13T04:45:45;94089.25;;;15.74;29.32
1926;BME280;964;42.606;23.588;2022-12-13T04:48:12;94094.28;;;16.16;28.84
1926;BME280;964;42.606;23.588;2022-12-13T04:50:39;94085.66;;;16.43;28.42
1926;BME280;964;42.606;23.588;2022-12-13T04:53:05;94090.19;;;16.46;28.65
1926;BME280;964;42.606;23.588;2022-12-13T04:55:32;94085.38;;;16.71;28.01
1926;BME280;964;42.606;23.588;2022-12-13T04:57:59;94094.28;;;16.16;28.82
1926;BME280;964;42.606;23.588;2022-12-13T05:00:27;94086.69;;;16.56;28.24
1926;BME280;964;42.606;23.588;2022-12-13T05:02:53;94102.94;;;15.83;29.06
1926;BME280;964;42.606;23.588;2022-12-13T05:05:20;94097.44;;;16.04;28.33
1926;BME280;964;42.606;23.588;2022-12-13T05:07:47;94092.41;;;15.62;28.97
1926;BME280;964;42.606;23.588;2022-12-13T05:10:14;94103.81;;;15.69;28.52
1926;BME280;964;42.606;23.588;2022-12-13T05:12:41;94087.31;;;16.26;28.00
1926;BME280;964;42.606;23.588;2022-12-13T05:15:08;94091.50;;;15.79;28.49
1926;BME280;964;42.606;23.588;2022-12-13T05:17:36;94086.06;;;15.93;28.63
1926;BME280;964;42.606;23.588;2022-12-13T05:20:04;94099.97;;;15.67;28.85
1926;BME280;964;42.606;23.588;2022-12-13T05:22:30;94107.00;;;15.40;29.16
1926;BME280;964;42.606;23.588;2022-12-13T05:24:57;94109.97;;;15.56;29.10
1926;BME280;964;42.606;23.588;2022-12-13T05:27:24;94114.34;;;15.18;29.33
1926;BME280;964;42.606;23.588;2022-12-13T05:29:50;94117.78;;;15.15;29.82
1926;BME280;964;42.606;23.588;2022-12-13T05:32:17;94113.13;;;15.37;29.32
1926;BME280;964;42.606;23.588;2022-12-13T05:34:45;94110.25;;;14.96;29.80
1926;BME280;964;42.606;23.588;2022-12-13T05:37:12;94108.53;;;15.37;29.05
1926;BME280;964;42.606;23.588;2022-12-13T05:39:38;94113.06;;;15.44;29.97
1926;BME280;964;42.606;23.588;2022-12-13T05:42:05;94118.56;;;15.88;28.84
1926;BME280;964;42.606;23.588;2022-12-13T05:44:32;94119.91;;;16.55;28.07
1926;BME280;964;42.606;23.588;2022-12-13T05:46:59;94127.09;;;16.21;28.63
1926;BME280;964;42.606;23.588;2022-12-13T05:49:25;94134.16;;;15.93;29.04
1926;BME280;964;42.606;23.588;2022-12-13T05:51:54;94142.50;;;16.47;28.79
1926;BME280;964;42.606;23.588;2022-12-13T05:54:20;94149.41;;;15.96;29.06
1926;BME280;964;42.606;23.588;2022-12-13T05:56:47;94146.66;;;15.38;29.18
1926;BME280;964;42.606;23.588;2022-12-13T05:59:14;94156.47;;;15.65;29.16
1926;BME280;964;42.606;23.588;2022-12-13T06:01:40;94160.44;;;15.26;29.82
1926;BME280;964;42.606;23.588;2022-12-13T06:04:07;94149.28;;;15.59;29.05
1926;BME280;964;42.606;23.588;2022-12-13T06:06:34;94153.25;;;15.95;28.92
1926;BME280;964;42.606;23.588;2022-12-13T06:09:02;94157.44;;;15.93;29.09
1926;BME280;964;42.606;23.588;2022-12-13T06:11:29;94155.22;;;16.36;28.12
1926;BME280;964;42.606;23.588;2022-12-13T06:13:55;94147.47;;;16.00;28.73
1926;BME280;964;42.606;23.588;2022-12-13T06:16:22;94154.69;;;16.03;28.55
1926;BME280;964;42.606;23.588;2022-12-13T06:18:49;94149.03;;;16.46;27.81
1926;BME280;964;42.606;23.588;2022-12-13T06:21:16;94156.25;;;16.93;27.19
1926;BME280;964;42.606;23.588;2022-12-13T06:23:42;94146.41;;;16.83;27.35
1926;BME280;964;42.606;23.588;2022-12-13T06:26:10;94147.50;;;16.89;27.96
1926;BME280;964;42.606;23.588;2022-12-13T06:28:37;94133.88;;;17.10;27.02
1926;BME280;964;42.606;23.588;2022-12-13T06:31:04;94142.13;;;17.23;26.92
1926;BME280;964;42.606;23.588;2022-12-13T06:33:31;94149.44;;;16.85;27.21
1926;BME280;964;42.606;23.588;2022-12-13T06:36:01;94146.41;;;17.51;26.43
1926;BME280;964;42.606;23.588;2022-12-13T06:38:29;94136.75;;;17.27;26.80
1926;BME280;964;42.606;23.588;2022-12-13T06:41:05;94142.97;;;17.16;27.08
1926;BME280;964;42.606;23.588;2022-12-13T06:43:33;94143.53;;;17.04;27.00
1926;BME280;964;42.606;23.588;2022-12-13T06:46:01;94153.13;;;16.98;27.47
1926;BME280;964;42.606;23.588;2022-12-13T06:48:28;94145.06;;;17.36;27.01
1926;BME280;964;42.606;23.588;2022-12-13T06:50:58;94145.03;;;17.96;26.38
1926;BME280;964;42.606;23.588;2022-12-13T06:53:25;94156.25;;;17.27;26.67
1926;BME280;964;42.606;23.588;2022-12-13T06:55:52;94160.88;;;17.57;26.10
1926;BME280;964;42.606;23.588;2022-12-13T06:58:19;94159.50;;;17.42;26.43
1926;BME280;964;42.606;23.588;2022-12-13T07:00:47;94152.44;;;18.39;25.98
1926;BME280;964;42.606;23.588;2022-12-13T07:03:13;94169.91;;;17.02;26.43
1926;BME280;964;42.606;23.588;2022-12-13T07:05:40;94168.34;;;17.73;26.09
1926;BME280;964;42.606;23.588;2022-12-13T07:08:08;94164.41;;;18.07;26.18
1926;BME280;964;42.606;23.588;2022-12-13T07:10:37;94174.00;;;17.48;26.64
1926;BME280;964;42.606;23.588;2022-12-13T07:13:04;94163.81;;;18.70;25.37
1926;BME280;964;42.606;23.588;2022-12-13T07:15:32;94157.91;;;19.41;24.70
1926;BME280;964;42.606;23.588;2022-12-13T07:18:00;94170.28;;;18.95;24.89
1926;BME280;964;42.606;23.588;2022-12-13T07:20:26;94160.88;;;19.66;23.95
1926;BME280;964;42.606;23.588;2022-12-13T07:22:53;94165.91;;;19.64;23.61
1926;BME280;964;42.606;23.588;2022-12-13T07:25:21;94176.09;;;19.92;23.49
1926;BME280;964;42.606;23.588;2022-12-13T07:27:54;94170.34;;;20.59;22.90
1926;BME280;964;42.606;23.588;2022-12-13T07:30:21;94162.72;;;21.72;21.96
1926;BME280;964;42.606;23.588;2022-12-13T07:32:47;94173.19;;;21.29;22.06
1926;BME280;964;42.606;23.588;2022-12-13T07:35:15;94172.69;;;21.34;22.16
1926;BME280;964;42.606;23.588;2022-12-13T07:37:42;94179.34;;;20.52;22.73
1926;BME280;964;42.606;23.588;2022-12-13T07:40:10;94173.47;;;20.41;23.10
1926;BME280;964;42.606;23.588;2022-12-13T07:42:37;94180.31;;;20.10;23.37
1926;BME280;964;42.606;23.588;2022-12-13T07:45:04;94177.16;;;20.79;22.98
1926;BME280;964;42.606;23.588;2022-12-13T07:47:31;94181.69;;;20.82;23.05
1926;BME280;964;42.606;23.588;2022-12-13T07:49:58;94181.88;;;20.75;22.83
1926;BME280;964;42.606;23.588;2022-12-13T07:52:26;94177.22;;;21.37;22.12
1926;BME280;964;42.606;23.588;2022-12-13T07:54:52;94186.09;;;20.60;23.21
1926;BME280;964;42.606;23.588;2022-12-13T07:57:20;94196.19;;;20.56;23.25
1926;BME280;964;42.606;23.588;2022-12-13T07:59:47;94183.13;;;21.32;22.70
1926;BME280;964;42.606;23.588;2022-12-13T08:02:13;94191.91;;;21.03;22.82
1926;BME280;964;42.606;23.588;2022-12-13T08:04:41;94193.16;;;21.60;22.39
1926;BME280;964;42.606;23.588;2022-12-13T08:07:09;94178.13;;;22.51;21.61
1926;BME280;964;42.606;23.588;2022-12-13T08:09:37;94176.78;;;22.81;20.98
1926;BME280;964;42.606;23.588;2022-12-13T08:12:04;94184.72;;;22.25;21.80
1926;BME280;964;42.606;23.588;2022-12-13T08:14:31;94186.63;;;23.22;20.39
1926;BME280;964;42.606;23.588;2022-12-13T08:16:57;94176.59;;;23.10;21.00
1926;BME280;964;42.606;23.588;2022-12-13T08:34:21;94201.47;;;18.66;24.34
1926;BME280;964;42.606;23.588;2022-12-13T08:36:47;94191.00;;;19.77;23.71
1926;BME280;964;42.606;23.588;2022-12-13T08:39:14;94188.44;;;20.74;22.83
1926;BME280;964;42.606;23.588;2022-12-13T08:41:41;94195.59;;;21.10;22.18
1926;BME280;964;42.606;23.588;2022-12-13T08:44:08;94175.22;;;22.33;21.17
1926;BME280;964;42.606;23.588;2022-12-13T08:46:35;94167.63;;;22.78;20.72
1926;BME280;964;42.606;23.588;2022-12-13T08:49:01;94171.44;;;22.43;20.82
1926;BME280;964;42.606;23.588;2022-12-13T08:51:29;94174.13;;;22.43;20.66
1926;BME280;964;42.606;23.588;2022-12-13T08:53:56;94173.19;;;22.96;20.73
1926;BME280;964;42.606;23.588;2022-12-13T08:56:23;94168.44;;;24.40;19.16
1926;BME280;964;42.606;23.588;2022-12-13T08:58:49;94162.69;;;24.96;19.41
1926;BME280;964;42.606;23.588;2022-12-13T09:01:16;94152.28;;;24.85;19.12
1926;BME280;964;42.606;23.588;2022-12-13T09:03:43;94151.38;;;25.61;18.70
1926;BME280;964;42.606;23.588;2022-12-13T09:06:12;94147.94;;;26.21;18.09
1926;BME280;964;42.606;23.588;2022-12-13T09:08:41;94147.44;;;25.80;18.25
1926;BME280;964;42.606;23.588;2022-12-13T09:11:10;94154.38;;;25.72;18.35
1926;BME280;964;42.606;23.588;2022-12-13T09:13:37;94148.69;;;26.21;18.30
1926;BME280;964;42.606;23.588;2022-12-13T09:16:05;94157.41;;;25.74;18.38
1926;BME280;964;42.606;23.588;2022-12-13T09:18:32;94142.09;;;26.04;18.22
1926;BME280;964;42.606;23.588;2022-12-13T09:20:59;94138.75;;;26.51;18.12
1926;BME280;964;42.606;23.588;2022-12-13T09:23:25;94136.78;;;26.19;17.86
1926;BME280;964;42.606;23.588;2022-12-13T09:25:54;94124.56;;;27.18;17.19
1926;BME280;964;42.606;23.588;2022-12-13T09:28:21;94121.16;;;27.76;16.81
1926;BME280;964;42.606;23.588;2022-12-13T09:30:48;94114.53;;;28.77;16.44
1926;BME280;964;42.606;23.588;2022-12-13T09:33:15;94112.34;;;29.01;16.47
1926;BME280;964;42.606;23.588;2022-12-13T09:35:45;94105.00;;;29.07;16.47
1926;BME280;964;42.606;23.588;2022-12-13T09:38:20;94096.72;;;30.30;15.84
1926;BME280;964;42.606;23.588;2022-12-13T09:40:49;94098.56;;;30.44;15.55
1926;BME280;964;42.606;23.588;2022-12-13T09:43:21;94106.00;;;29.81;15.34
1926;BME280;964;42.606;23.588;2022-12-13T09:45:50;94093.69;;;31.07;15.31
1926;BME280;964;42.606;23.588;2022-12-13T09:48:19;94093.78;;;30.82;15.16
1926;BME280;964;42.606;23.588;2022-12-13T09:50:47;94085.53;;;30.71;14.64
1926;BME280;964;42.606;23.588;2022-12-13T09:53:16;94090.56;;;30.04;15.15
1926;BME280;964;42.606;23.588;2022-12-13T09:55:45;94092.09;;;29.53;15.92
1926;BME280;964;42.606;23.588;2022-12-13T09:58:16;94098.47;;;27.12;17.19
1926;BME280;964;42.606;23.588;2022-12-13T10:00:47;94112.53;;;25.19;19.16
1926;BME280;964;42.606;23.588;2022-12-13T10:03:15;94113.25;;;24.65;19.35
1926;BME280;964;42.606;23.588;2022-12-13T10:05:44;94096.09;;;26.01;18.39
1926;BME280;964;42.606;23.588;2022-12-13T10:08:13;94087.97;;;26.33;18.39
1926;BME280;964;42.606;23.588;2022-12-13T10:10:41;94080.97;;;28.15;17.20
1926;BME280;964;42.606;23.588;2022-12-13T10:13:15;94090.25;;;27.21;17.80
1926;BME280;964;42.606;23.588;2022-12-13T10:15:49;94088.28;;;27.36;18.02
1926;BME280;964;42.606;23.588;2022-12-13T10:18:24;94091.13;;;28.15;16.94
1926;BME280;964;42.606;23.588;2022-12-13T10:20:52;94080.47;;;28.17;16.53
1926;BME280;964;42.606;23.588;2022-12-13T10:23:19;94076.50;;;27.01;17.71
1926;BME280;964;42.606;23.588;2022-12-13T10:25:49;94073.22;;;27.50;17.48
1926;BME280;964;42.606;23.588;2022-12-13T10:28:24;94075.22;;;27.99;17.06
1926;BME280;964;42.606;23.588;2022-12-13T10:30:53;94075.91;;;27.94;17.45
1926;BME280;964;42.606;23.588;2022-12-13T10:33:24;94079.84;;;27.34;17.41
1926;BME280;964;42.606;23.588;2022-12-13T10:36:12;94072.13;;;25.57;18.61
1926;BME280;964;42.606;23.588;2022-12-13T10:38:41;94072.06;;;25.75;19.33
1926;BME280;964;42.606;23.588;2022-12-13T10:41:28;94067.19;;;25.19;19.13
1926;BME280;964;42.606;23.588;2022-12-13T10:44:13;94049.63;;;25.99;18.37
1926;BME280;964;42.606;23.588;2022-12-13T10:46:48;94042.75;;;26.45;18.47
1926;BME280;964;42.606;23.588;2022-12-13T10:49:18;94051.97;;;25.31;19.70
1926;BME280;964;42.606;23.588;2022-12-13T10:51:47;94047.97;;;25.50;18.71
1926;BME280;964;42.606;23.588;2022-12-13T10:54:27;94043.19;;;25.96;18.82
1926;BME280;964;42.606;23.588;2022-12-13T10:56:54;94042.16;;;25.84;18.69
1926;BME280;964;42.606;23.588;2022-12-13T10:59:31;94047.56;;;25.94;19.07
1926;BME280;964;42.606;23.588;2022-12-13T11:02:01;94047.50;;;26.03;18.56
1926;BME280;964;42.606;23.588;2022-12-13T11:04:29;94035.28;;;25.74;19.08
1926;BME280;964;42.606;23.588;2022-12-13T11:06:58;94039.72;;;25.54;19.05
1926;BME280;964;42.606;23.588;2022-12-13T11:09:28;94031.03;;;25.82;19.24
1926;BME280;964;42.606;23.588;2022-12-13T11:11:56;94031.75;;;26.16;18.50
1926;BME280;964;42.606;23.588;2022-12-13T11:14:27;94025.31;;;26.37;18.29
1926;BME280;964;42.606;23.588;2022-12-13T11:16:57;94021.78;;;26.46;18.66
1926;BME280;964;42.606;23.588;2022-12-13T11:19:36;94022.72;;;27.63;17.72
1926;BME280;964;42.606;23.588;2022-12-13T11:22:06;94013.66;;;27.87;16.95
1926;BME280;964;42.606;23.588;2022-12-13T11:24:36;94009.94;;;27.11;17.15
1926;BME280;964;42.606;23.588;2022-12-13T11:27:16;94012.78;;;27.60;17.51
1926;BME280;964;42.606;23.588;2022-12-13T11:29:57;94007.28;;;28.65;17.60
1926;BME280;964;42.606;23.588;2022-12-13T11:32:41;94004.06;;;28.46;17.10
1926;BME280;964;42.606;23.588;2022-12-13T11:35:15;94009.66;;;27.67;16.82
1926;BME280;964;42.606;23.588;2022-12-13T11:37:47;94011.59;;;27.82;17.33
1926;BME280;964;42.606;23.588;2022-12-13T11:40:21;94005.25;;;27.26;17.95
1926;BME280;964;42.606;23.588;2022-12-13T11:42:54;94000.75;;;28.02;17.36
1926;BME280;964;42.606;23.588;2022-12-13T11:45:25;94003.25;;;28.60;17.09
1926;BME280;964;42.606;23.588;2022-12-13T11:48:00;94014.16;;;28.60;16.87
1926;BME280;964;42.606;23.588;2022-12-13T11:50:31;94006.81;;;29.38;16.19
1926;BME280;964;42.606;23.588;2022-12-13T11:53:11;94012.59;;;29.77;16.13
1926;BME280;964;42.606;23.588;2022-12-13T11:55:45;93999.53;;;29.87;16.15
1926;BME280;964;42.606;23.588;2022-12-13T11:58:20;93998.81;;;29.92;16.04
1926;BME280;964;42.606;23.588;2022-12-13T12:00:53;93991.50;;;30.14;15.74
1926;BME280;964;42.606;23.588;2022-12-13T12:03:30;93988.59;;;29.87;16.27
1926;BME280;964;42.606;23.588;2022-12-13T12:06:06;93999.94;;;30.16;15.99
1926;BME280;964;42.606;23.588;2022-12-13T12:08:37;93985.78;;;29.76;16.08
1926;BME280;964;42.606;23.588;2022-12-13T12:11:11;93981.16;;;29.87;16.18
1926;BME280;964;42.606;23.588;2022-12-13T12:13:43;93989.88;;;29.60;16.24
1926;BME280;964;42.606;23.588;2022-12-13T12:16:18;93988.16;;;29.94;15.69
1926;BME280;964;42.606;23.588;2022-12-13T12:18:46;93998.19;;;28.94;16.27
1926;BME280;964;42.606;23.588;2022-12-13T12:21:24;93988.78;;;28.95;16.49
1926;BME280;964;42.606;23.588;2022-12-13T12:24:06;93980.00;;;29.37;16.11
1926;BME280;964;42.606;23.588;2022-12-13T12:26:41;93981.81;;;29.45;16.25
1926;BME280;964;42.606;23.588;2022-12-13T12:29:39;93980.44;;;29.92;15.78
1926;BME280;964;42.606;23.588;2022-12-13T12:32:21;93982.31;;;29.81;15.97
1926;BME280;964;42.606;23.588;2022-12-13T12:48:20;94024.06;;;22.67;21.44
1926;BME280;964;42.606;23.588;2022-12-13T12:50:56;94034.16;;;21.94;22.72
1926;BME280;964;42.606;23.588;2022-12-13T12:53:35;94030.59;;;21.97;22.14
1926;BME280;964;42.606;23.588;2022-12-13T12:56:22;94026.28;;;22.47;21.60
1926;BME280;964;42.606;23.588;2022-12-13T12:58:56;94035.72;;;22.30;21.83
1926;BME280;964;42.606;23.588;2022-12-13T13:01:41;94051.19;;;20.42;23.90
1926;BME280;964;42.606;23.588;2022-12-13T13:04:14;94049.59;;;21.56;22.98
1926;BME280;964;42.606;23.588;2022-12-13T13:06:47;94036.56;;;22.95;22.11
1926;BME280;964;42.606;23.588;2022-12-13T13:09:16;94031.88;;;23.39;20.99
1926;BME280;964;42.606;23.588;2022-12-13T13:11:46;94039.00;;;23.46;21.12
1926;BME280;964;42.606;23.588;2022-12-13T13:14:30;94057.69;;;23.53;21.24
1926;BME280;964;42.606;23.588;2022-12-13T13:16:58;94072.56;;;23.14;21.65
1926;BME280;964;42.606;23.588;2022-12-13T13:19:46;94085.81;;;22.31;21.81
1926;BME280;964;42.606;23.588;2022-12-13T13:22:30;94082.47;;;21.51;22.26
1926;BME280;964;42.606;23.588;2022-12-13T13:25:27;94081.53;;;20.87;22.99
1926;BME280;964;42.606;23.588;2022-12-13T13:28:09;94089.03;;;20.02;24.17
1926;BME280;964;42.606;23.588;2022-12-13T13:31:00;94099.03;;;18.71;25.95
1926;BME280;964;42.606;23.588;2022-12-13T13:33:44;94099.84;;;18.68;26.37
1926;BME280;964;42.606;23.588;2022-12-13T13:39:15;94107.00;;;18.75;26.46
1926;BME280;964;42.606;23.588;2022-12-13T13:42:07;94104.28;;;18.55;26.62
1926;BME280;964;42.606;23.588;2022-12-13T13:44:58;94122.72;;;18.53;27.29
1926;BME280;964;42.606;23.588;2022-12-13T13:47:40;94128.47;;;18.28;27.43
1926;BME280;964;42.606;23.588;2022-12-13T13:53:21;94115.56;;;18.20;27.54
1926;BME280;964;42.606;23.588;2022-12-13T13:55:58;94114.25;;;17.81;27.44
1926;BME280;964;42.606;23.588;2022-12-13T14:02:14;94112.09;;;17.39;28.24
1926;BME280;964;42.606;23.588;2022-12-13T14:08:12;94114.97;;;17.55;28.10
1926;BME280;964;42.606;23.588;2022-12-13T14:10:49;94120.69;;;17.27;28.85
1926;BME280;964;42.606;23.588;2022-12-13T14:13:50;94112.56;;;17.03;29.63
1926;BME280;964;42.606;23.588;2022-12-13T14:17:07;94102.00;;;16.89;29.84
1926;BME280;964;42.606;23.588;2022-12-13T14:20:12;94098.78;;;17.01;29.53
1926;BME280;964;42.606;23.588;2022-12-13T14:22:44;94097.91;;;16.37;30.36
1926;BME280;964;42.606;23.588;2022-12-13T14:25:36;94087.53;;;16.01;30.57
1926;BME280;964;42.606;23.588;2022-12-13T14:28:13;94082.53;;;16.48;30.89
1926;BME280;964;42.606;23.588;2022-12-13T14:30:43;94084.50;;;16.81;30.12